Time,TemperatureF,DewpointF,PressureIn,WindDirection,WindDirectionDegrees,WindSpeedMPH,WindSpeedGustMPH,Humidity,HourlyPrecipIn,Conditions,Clouds,dailyrainin,SoftwareType,DateUTC
2013-04-03 00:03:00,38.1,-0.5,29.65,North,0,0.0,0.0,19,0.00,,,0.00,VWS V13.01,2013-04-03 05:03:00,
2013-04-03 00:08:00,37.9,-0.6,29.65,North,0,0.0,0.0,19,0.00,,,0.00,VWS V13.01,2013-04-03 05:08:00,
2013-04-03 00:13:00,37.6,-0.9,29.65,North,0,0.0,0.0,19,0.00,,,0.00,VWS V13.01,2013-04-03 05:13:00,
2013-04-03 00:18:00,37.8,-0.8,29.65,North,0,0.0,0.0,19,0.00,,,0.00,VWS V13.01,2013-04-03 05:18:00,
2013-04-03 00:24:00,37.8,-0.8,29.65,North,0,0.0,0.0,19,0.00,,,0.00,VWS V13.01,2013-04-03 05:24:00,
2013-04-03 00:29:00,37.6,-0.9,29.65,North,0,0.0,0.0,19,0.00,,,0.00,VWS V13.01,2013-04-03 05:29:00,
2013-04-03 00:34:00,37.9,-0.6,29.65,North,0,0.0,0.0,19,0.00,,,0.00,VWS V13.01,2013-04-03 05:34:00,
2013-04-03 00:39:00,38.1,-0.5,29.65,North,0,0.0,0.0,19,0.00,,,0.00,VWS V13.01,2013-04-03 05:39:00,
2013-04-03 00:44:00,38.3,-0.3,29.65,North,0,0.0,0.0,19,0.00,,,0.00,VWS V13.01,2013-04-03 05:44:00,
2013-04-03 00:49:00,37.9,-0.6,29.65,North,0,0.0,0.0,19,0.00,,,0.00,VWS V13.01,2013-04-03 05:49:00,
2013-04-03 00:55:00,37.9,-0.6,29.65,North,0,0.0,0.0,19,0.00,,,0.00,VWS V13.01,2013-04-03 05:55:00,
2013-04-03 01:00:00,37.8,-0.8,29.65,North,0,0.0,0.0,19,0.00,,,0.00,VWS V13.01,2013-04-03 06:00:00,
2013-04-03 01:05:00,37.4,-1.1,29.65,North,0,0.0,0.0,19,0.00,,,0.00,VWS V13.01,2013-04-03 06:05:00,
2013-04-03 01:10:00,37.2,-1.2,29.65,North,0,0.0,0.0,19,0.00,,,0.00,VWS V13.01,2013-04-03 06:10:00,
2013-04-03 01:15:00,37.0,-1.4,29.65,North,0,0.0,0.0,19,0.00,,,0.00,VWS V13.01,2013-04-03 06:15:00,
2013-04-03 01:21:00,37.0,-1.4,29.68,North,0,0.0,0.0,19,0.00,,,0.00,VWS V13.01,2013-04-03 06:21:00,
2013-04-03 01:26:00,37.2,-1.2,29.68,North,0,0.0,0.0,19,0.00,,,0.00,VWS V13.01,2013-04-03 06:26:00,
2013-04-03 01:31:00,37.2,-1.2,29.68,North,0,0.0,2.7,19,0.00,,,0.00,VWS V13.01,2013-04-03 06:31:00,
2013-04-03 01:36:00,37.2,-1.2,29.68,North,0,0.0,0.0,19,0.00,,,0.00,VWS V13.01,2013-04-03 06:36:00,
2013-04-03 01:41:00,37.0,-1.4,29.68,North,0,3.1,3.1,19,0.00,,,0.00,VWS V13.01,2013-04-03 06:41:00,
2013-04-03 01:47:00,37.0,-1.4,29.68,NNE,22,0.0,2.7,19,0.00,,,0.00,VWS V13.01,2013-04-03 06:47:00,
2013-04-03 01:52:00,36.7,-1.7,29.68,North,0,4.0,4.0,19,0.00,,,0.00,VWS V13.01,2013-04-03 06:52:00,
2013-04-03 01:57:00,36.5,-1.8,29.68,NE,45,4.9,4.9,19,0.00,,,0.00,VWS V13.01,2013-04-03 06:57:00,
2013-04-03 02:02:00,36.3,-2.0,29.65,North,0,3.6,4.0,19,0.00,,,0.00,VWS V13.01,2013-04-03 07:02:00,
2013-04-03 02:07:00,36.0,-2.3,29.65,North,0,4.0,7.6,19,0.00,,,0.00,VWS V13.01,2013-04-03 07:07:00,
2013-04-03 02:12:00,35.6,-2.6,29.65,North,0,3.1,3.6,19,0.00,,,0.00,VWS V13.01,2013-04-03 07:12:00,
2013-04-03 02:17:00,35.4,-1.6,29.65,North,0,3.6,3.6,20,0.00,,,0.00,VWS V13.01,2013-04-03 07:17:00,
2013-04-03 02:23:00,35.1,0.1,29.65,North,0,0.0,2.7,22,0.00,,,0.00,VWS V13.01,2013-04-03 07:23:00,
2013-04-03 02:28:00,35.1,0.1,29.65,North,0,3.6,4.9,22,0.00,,,0.00,VWS V13.01,2013-04-03 07:28:00,
2013-04-03 02:33:00,35.1,-2.0,29.65,North,0,3.1,4.9,20,0.00,,,0.00,VWS V13.01,2013-04-03 07:33:00,
2013-04-03 02:38:00,35.1,0.1,29.65,North,0,0.0,0.0,22,0.00,,,0.00,VWS V13.01,2013-04-03 07:38:00,
2013-04-03 02:43:00,35.1,0.1,29.65,North,0,4.0,6.3,22,0.00,,,0.00,VWS V13.01,2013-04-03 07:43:00,
2013-04-03 02:48:00,34.9,-0.1,29.65,NE,45,3.1,6.3,22,0.00,,,0.00,VWS V13.01,2013-04-03 07:48:00,
2013-04-03 02:53:00,34.9,-0.1,29.65,NE,45,4.9,5.8,22,0.00,,,0.00,VWS V13.01,2013-04-03 07:53:00,
2013-04-03 02:58:00,35.1,0.1,29.65,NNE,22,4.0,4.9,22,0.00,,,0.00,VWS V13.01,2013-04-03 07:58:00,
2013-04-03 03:04:00,35.1,0.1,29.68,NNE,22,4.0,4.0,22,0.00,,,0.00,VWS V13.01,2013-04-03 08:04:00,
2013-04-03 03:09:00,34.7,-0.2,29.68,NE,45,4.0,4.0,22,0.00,,,0.00,VWS V13.01,2013-04-03 08:09:00,
2013-04-03 03:14:00,34.7,-0.2,29.68,NNE,22,0.0,3.6,22,0.00,,,0.00,VWS V13.01,2013-04-03 08:14:00,
2013-04-03 03:19:00,34.3,-0.6,29.68,NE,45,0.0,0.0,22,0.00,,,0.00,VWS V13.01,2013-04-03 08:19:00,
2013-04-03 03:24:00,34.3,-0.6,29.68,NE,45,0.0,0.0,22,0.00,,,0.00,VWS V13.01,2013-04-03 08:24:00,
2013-04-03 03:30:00,34.3,-0.6,29.68,North,0,0.0,3.1,22,0.00,,,0.00,VWS V13.01,2013-04-03 08:30:00,
2013-04-03 03:35:00,34.2,-0.7,29.65,North,0,3.1,5.4,22,0.00,,,0.00,VWS V13.01,2013-04-03 08:35:00,
2013-04-03 03:40:00,34.0,-0.9,29.65,North,0,4.0,4.0,22,0.00,,,0.00,VWS V13.01,2013-04-03 08:40:00,
2013-04-03 03:45:00,33.8,-1.0,29.68,NE,45,4.0,4.9,22,0.00,,,0.00,VWS V13.01,2013-04-03 08:45:00,
2013-04-03 03:50:00,33.6,-0.2,29.68,NE,45,0.0,0.0,23,0.00,,,0.00,VWS V13.01,2013-04-03 08:50:00,
2013-04-03 03:56:00,33.6,-0.2,29.68,North,0,0.0,0.0,23,0.00,,,0.00,VWS V13.01,2013-04-03 08:56:00,
2013-04-03 04:01:00,33.4,-0.4,29.68,North,0,0.0,0.0,23,0.00,,,0.00,VWS V13.01,2013-04-03 09:01:00,
2013-04-03 04:06:00,33.4,-0.4,29.68,NNE,22,0.0,0.0,23,0.00,,,0.00,VWS V13.01,2013-04-03 09:06:00,
2013-04-03 04:11:00,33.4,-0.4,29.68,NE,45,4.9,4.9,23,0.00,,,0.00,VWS V13.01,2013-04-03 09:11:00,
2013-04-03 04:16:00,33.6,-0.2,29.68,NE,45,4.9,4.9,23,0.00,,,0.00,VWS V13.01,2013-04-03 09:16:00,
2013-04-03 04:22:00,33.6,-0.2,29.68,NNE,22,3.6,4.9,23,0.00,,,0.00,VWS V13.01,2013-04-03 09:22:00,
2013-04-03 04:27:00,33.4,-0.4,29.68,NNE,22,5.4,6.7,23,0.00,,,0.00,VWS V13.01,2013-04-03 09:27:00,
2013-04-03 04:32:00,33.3,-0.5,29.65,NE,45,3.1,5.8,23,0.00,,,0.00,VWS V13.01,2013-04-03 09:32:00,
2013-04-03 04:37:00,33.3,-0.5,29.65,North,0,3.1,4.0,23,0.00,,,0.00,VWS V13.01,2013-04-03 09:37:00,
2013-04-03 04:42:00,32.9,-0.8,29.65,North,0,2.7,5.8,23,0.00,,,0.00,VWS V13.01,2013-04-03 09:42:00,
2013-04-03 04:47:00,32.7,-1.0,29.65,NE,45,3.6,5.8,23,0.00,,,0.00,VWS V13.01,2013-04-03 09:47:00,
2013-04-03 04:52:00,32.5,-1.1,29.65,NE,45,0.0,0.0,23,0.00,,,0.00,VWS V13.01,2013-04-03 09:52:00,
2013-04-03 04:57:00,32.4,-1.3,29.65,NE,45,0.0,0.0,23,0.00,,,0.00,VWS V13.01,2013-04-03 09:57:00,
2013-04-03 05:03:00,32.4,-1.3,29.68,NE,45,0.0,0.0,23,0.00,,,0.00,VWS V13.01,2013-04-03 10:03:00,
2013-04-03 05:08:00,32.5,-1.1,29.68,NE,45,4.0,4.9,23,0.00,,,0.00,VWS V13.01,2013-04-03 10:08:00,
2013-04-03 05:13:00,32.7,-1.0,29.68,NE,45,4.0,4.0,23,0.00,,,0.00,VWS V13.01,2013-04-03 10:13:00,
2013-04-03 05:18:00,32.5,-1.1,29.68,NE,45,2.7,2.7,23,0.00,,,0.00,VWS V13.01,2013-04-03 10:18:00,
2013-04-03 05:23:00,32.5,-1.1,29.68,NE,45,3.6,5.4,23,0.00,,,0.00,VWS V13.01,2013-04-03 10:23:00,
2013-04-03 05:29:00,32.4,-1.3,29.68,North,0,4.9,5.4,23,0.00,,,0.00,VWS V13.01,2013-04-03 10:29:00,
2013-04-03 05:34:00,32.2,-1.4,29.68,NE,45,5.4,6.3,23,0.00,,,0.00,VWS V13.01,2013-04-03 10:34:00,
2013-04-03 05:39:00,32.0,-1.6,29.68,North,0,2.7,3.1,23,0.00,,,0.00,VWS V13.01,2013-04-03 10:39:00,
2013-04-03 05:44:00,31.3,-0.4,29.68,North,0,3.6,3.6,25,0.00,,,0.00,VWS V13.01,2013-04-03 10:44:00,
2013-04-03 05:49:00,31.1,-0.6,29.68,North,0,4.0,4.9,25,0.00,,,0.00,VWS V13.01,2013-04-03 10:49:00,
2013-04-03 05:54:00,31.1,1.8,29.68,NE,45,4.0,6.7,28,0.00,,,0.00,VWS V13.01,2013-04-03 10:54:00,
2013-04-03 06:00:00,31.5,-0.3,29.68,North,0,6.3,8.7,25,0.00,,,0.00,VWS V13.01,2013-04-03 11:00:00,
2013-04-03 06:05:00,31.6,-0.1,29.68,North,0,4.0,6.3,25,0.00,,,0.00,VWS V13.01,2013-04-03 11:05:00,
2013-04-03 06:10:00,32.0,-1.6,29.68,NE,45,3.6,5.4,23,0.00,,,0.00,VWS V13.01,2013-04-03 11:10:00,
2013-04-03 06:15:00,31.8,-1.8,29.68,NE,45,2.7,5.4,23,0.00,,,0.00,VWS V13.01,2013-04-03 11:15:00,
2013-04-03 06:20:00,32.0,-1.6,29.68,NE,45,4.0,4.0,23,0.00,,,0.00,VWS V13.01,2013-04-03 11:20:00,
2013-04-03 06:25:00,32.0,-1.6,29.68,NE,45,2.7,4.0,23,0.00,,,0.00,VWS V13.01,2013-04-03 11:25:00,
2013-04-03 06:30:00,32.0,-1.6,29.68,North,0,3.1,3.6,23,0.00,,,0.00,VWS V13.01,2013-04-03 11:30:00,
2013-04-03 06:36:00,31.8,-1.8,29.68,NE,45,5.8,5.8,23,0.00,,,0.00,VWS V13.01,2013-04-03 11:36:00,
2013-04-03 06:41:00,31.6,-1.9,29.68,North,0,0.0,0.0,23,0.00,,,0.00,VWS V13.01,2013-04-03 11:41:00,
2013-04-03 06:46:00,31.6,-1.9,29.71,NE,45,0.0,4.9,23,0.00,,,0.00,VWS V13.01,2013-04-03 11:46:00,
2013-04-03 06:51:00,31.3,-2.2,29.71,NE,45,0.0,0.0,23,0.00,,,0.00,VWS V13.01,2013-04-03 11:51:00,
2013-04-03 06:56:00,31.3,-2.2,29.71,NE,45,0.0,0.0,23,0.00,,,0.00,VWS V13.01,2013-04-03 11:56:00,
2013-04-03 07:01:00,31.3,-0.4,29.71,NNE,22,4.0,4.0,25,0.00,,,0.00,VWS V13.01,2013-04-03 12:01:00,
2013-04-03 07:06:00,31.5,-0.3,29.71,NNE,22,5.4,5.4,25,0.00,,,0.00,VWS V13.01,2013-04-03 12:06:00,
2013-04-03 07:12:00,32.4,-1.3,29.71,NE,45,4.0,5.4,23,0.00,,,0.00,VWS V13.01,2013-04-03 12:12:00,
2013-04-03 07:17:00,32.7,-1.0,29.71,NNE,22,5.4,5.4,23,0.00,,,0.00,VWS V13.01,2013-04-03 12:17:00,
2013-04-03 07:22:00,33.1,-0.7,29.71,NE,45,3.1,5.8,23,0.00,,,0.00,VWS V13.01,2013-04-03 12:22:00,
2013-04-03 07:27:00,33.3,-0.5,29.71,NE,45,7.6,7.6,23,0.00,,,0.00,VWS V13.01,2013-04-03 12:27:00,
2013-04-03 07:33:00,33.6,-0.2,29.74,NE,45,3.6,4.9,23,0.00,,,0.00,VWS V13.01,2013-04-03 12:33:00,
2013-04-03 07:38:00,33.6,-0.2,29.74,NE,45,0.0,7.2,23,0.00,,,0.00,VWS V13.01,2013-04-03 12:38:00,
2013-04-03 07:43:00,34.0,-0.9,29.74,NE,45,4.0,5.4,22,0.00,,,0.00,VWS V13.01,2013-04-03 12:43:00,
2013-04-03 07:48:00,34.3,-0.6,29.74,NE,45,0.0,0.0,22,0.00,,,0.00,VWS V13.01,2013-04-03 12:48:00,
2013-04-03 07:53:00,34.9,-0.1,29.74,East,90,2.2,4.0,22,0.00,,,0.00,VWS V13.01,2013-04-03 12:53:00,
2013-04-03 07:58:00,35.2,0.2,29.74,East,90,3.6,3.6,22,0.00,,,0.00,VWS V13.01,2013-04-03 12:58:00,
2013-04-03 08:03:00,35.6,0.5,29.74,NE,45,3.6,3.6,22,0.00,,,0.00,VWS V13.01,2013-04-03 13:03:00,
2013-04-03 08:09:00,35.6,0.5,29.74,ENE,68,8.1,8.1,22,0.00,,,0.00,VWS V13.01,2013-04-03 13:09:00,
2013-04-03 08:14:00,35.6,0.5,29.74,NE,45,3.1,4.9,22,0.00,,,0.00,VWS V13.01,2013-04-03 13:14:00,
2013-04-03 08:19:00,36.0,0.8,29.74,NE,45,4.0,4.0,22,0.00,,,0.00,VWS V13.01,2013-04-03 13:19:00,
2013-04-03 08:24:00,36.3,1.1,29.74,NE,45,3.6,4.0,22,0.00,,,0.00,VWS V13.01,2013-04-03 13:24:00,
2013-04-03 08:30:00,36.7,1.4,29.74,NE,45,4.0,6.3,22,0.00,,,0.00,VWS V13.01,2013-04-03 13:30:00,
2013-04-03 08:35:00,36.5,1.3,29.74,North,0,0.0,6.7,22,0.00,,,0.00,VWS V13.01,2013-04-03 13:35:00,
2013-04-03 08:40:00,36.5,1.3,29.74,East,90,5.8,5.8,22,0.00,,,0.00,VWS V13.01,2013-04-03 13:40:00,
2013-04-03 08:45:00,36.9,1.6,29.74,East,90,7.2,7.2,22,0.00,,,0.00,VWS V13.01,2013-04-03 13:45:00,
2013-04-03 08:50:00,37.4,1.0,29.76,East,90,4.9,6.3,21,0.00,,,0.00,VWS V13.01,2013-04-03 13:50:00,
2013-04-03 08:55:00,37.9,1.5,29.76,NE,45,2.7,4.0,21,0.00,,,0.00,VWS V13.01,2013-04-03 13:55:00,
2013-04-03 09:00:00,37.9,1.5,29.76,East,90,2.7,5.8,21,0.00,,,0.00,VWS V13.01,2013-04-03 14:00:00,
2013-04-03 09:05:00,38.1,1.6,29.74,North,0,4.9,7.6,21,0.00,,,0.00,VWS V13.01,2013-04-03 14:05:00,
2013-04-03 09:11:00,38.8,2.3,29.74,NE,45,0.0,5.4,21,0.00,,,0.00,VWS V13.01,2013-04-03 14:11:00,
2013-04-03 09:16:00,39.2,2.6,29.74,North,0,5.8,8.1,21,0.00,,,0.00,VWS V13.01,2013-04-03 14:16:00,
2013-04-03 09:21:00,39.2,2.6,29.74,East,90,8.1,8.1,21,0.00,,,0.00,VWS V13.01,2013-04-03 14:21:00,
2013-04-03 09:26:00,39.4,2.7,29.74,NE,45,6.3,6.3,21,0.00,,,0.00,VWS V13.01,2013-04-03 14:26:00,
2013-04-03 09:31:00,39.7,3.0,29.74,NE,45,3.6,5.4,21,0.00,,,0.00,VWS V13.01,2013-04-03 14:31:00,
2013-04-03 09:36:00,40.1,3.3,29.74,North,0,4.9,4.9,21,0.00,,,0.00,VWS V13.01,2013-04-03 14:36:00,
2013-04-03 09:41:00,40.6,3.8,29.74,NE,45,6.3,6.3,21,0.00,,,0.00,VWS V13.01,2013-04-03 14:41:00,
2013-04-03 09:47:00,41.2,4.2,29.74,East,90,3.1,7.6,21,0.00,,,0.00,VWS V13.01,2013-04-03 14:47:00,
2013-04-03 09:52:00,41.5,4.5,29.74,NE,45,5.4,7.6,21,0.00,,,0.00,VWS V13.01,2013-04-03 14:52:00,
2013-04-03 09:57:00,41.4,4.4,29.74,NE,45,5.4,5.8,21,0.00,,,0.00,VWS V13.01,2013-04-03 14:57:00,
2013-04-03 10:02:00,42.1,5.0,29.74,NE,45,4.0,6.3,21,0.00,,,0.00,VWS V13.01,2013-04-03 15:02:00,
2013-04-03 10:07:00,42.6,5.4,29.74,NE,45,7.6,7.6,21,0.00,,,0.00,VWS V13.01,2013-04-03 15:07:00,
2013-04-03 10:12:00,42.8,4.5,29.74,NE,45,5.8,5.8,20,0.00,,,0.00,VWS V13.01,2013-04-03 15:12:00,
2013-04-03 10:17:00,43.0,4.7,29.74,NE,45,5.4,5.4,20,0.00,,,0.00,VWS V13.01,2013-04-03 15:17:00,
2013-04-03 10:23:00,43.3,5.0,29.74,NE,45,7.2,7.6,20,0.00,,,0.00,VWS V13.01,2013-04-03 15:23:00,
2013-04-03 10:28:00,44.4,5.9,29.74,East,90,2.2,6.3,20,0.00,,,0.00,VWS V13.01,2013-04-03 15:28:00,
2013-04-03 10:33:00,44.4,5.9,29.74,East,90,4.9,4.9,20,0.00,,,0.00,VWS V13.01,2013-04-03 15:33:00,
2013-04-03 10:38:00,45.0,6.3,29.74,East,90,5.8,5.8,20,0.00,,,0.00,VWS V13.01,2013-04-03 15:38:00,
2013-04-03 10:43:00,45.1,6.5,29.74,North,0,7.6,7.6,20,0.00,,,0.00,VWS V13.01,2013-04-03 15:43:00,
2013-04-03 10:48:00,44.8,6.2,29.74,North,0,3.1,7.6,20,0.00,,,0.00,VWS V13.01,2013-04-03 15:48:00,
2013-04-03 10:53:00,46.9,6.8,29.74,NE,45,2.7,5.8,19,0.00,,,0.00,VWS V13.01,2013-04-03 15:53:00,
2013-04-03 10:58:00,46.2,7.4,29.74,East,90,2.7,3.1,20,0.00,,,0.00,VWS V13.01,2013-04-03 15:58:00,
2013-04-03 11:04:00,46.2,7.4,29.74,North,0,4.0,5.4,20,0.00,,,0.00,VWS V13.01,2013-04-03 16:04:00,
2013-04-03 11:09:00,46.2,7.4,29.74,East,90,0.0,4.0,20,0.00,,,0.00,VWS V13.01,2013-04-03 16:09:00,
2013-04-03 11:14:00,46.4,6.4,29.74,NE,45,5.4,5.4,19,0.00,,,0.00,VWS V13.01,2013-04-03 16:14:00,
2013-04-03 11:19:00,46.9,6.8,29.74,SE,135,3.1,4.0,19,0.00,,,0.00,VWS V13.01,2013-04-03 16:19:00,
2013-04-03 11:24:00,47.1,7.0,29.74,East,90,0.0,2.2,19,0.00,,,0.00,VWS V13.01,2013-04-03 16:24:00,
2013-04-03 11:29:00,46.8,6.7,29.74,East,90,13.2,13.2,19,0.00,,,0.00,VWS V13.01,2013-04-03 16:29:00,
2013-04-03 11:34:00,46.0,7.2,29.74,East,90,7.6,9.6,20,0.00,,,0.00,VWS V13.01,2013-04-03 16:34:00,
2013-04-03 11:40:00,45.9,7.1,29.74,NE,45,3.6,7.2,20,0.00,,,0.00,VWS V13.01,2013-04-03 16:40:00,
2013-04-03 11:45:00,46.6,6.5,29.74,East,90,7.6,8.7,19,0.00,,,0.00,VWS V13.01,2013-04-03 16:45:00,
2013-04-03 11:51:00,47.3,4.7,29.74,East,90,9.6,9.6,17,0.00,,,0.00,VWS V13.01,2013-04-03 16:51:00,
2013-04-03 11:56:00,46.6,6.5,29.74,East,90,8.7,10.1,19,0.00,,,0.00,VWS V13.01,2013-04-03 16:56:00,
2013-04-03 12:02:00,47.1,7.0,29.74,NE,45,6.3,8.1,19,0.00,,,0.00,VWS V13.01,2013-04-03 17:02:00,
2013-04-03 12:07:00,47.1,7.0,29.74,East,90,10.5,11.4,19,0.00,,,0.00,VWS V13.01,2013-04-03 17:07:00,
2013-04-03 12:12:00,47.5,7.3,29.74,NE,45,10.5,10.5,19,0.00,,,0.00,VWS V13.01,2013-04-03 17:12:00,
2013-04-03 12:17:00,47.3,7.1,29.74,NE,45,8.3,12.3,19,0.00,,,0.00,VWS V13.01,2013-04-03 17:17:00,
2013-04-03 12:22:00,47.7,7.4,29.74,East,90,10.1,10.1,19,0.00,,,0.00,VWS V13.01,2013-04-03 17:22:00,
2013-04-03 12:27:00,47.8,7.6,29.74,NE,45,7.2,11.0,19,0.00,,,0.00,VWS V13.01,2013-04-03 17:27:00,
2013-04-03 12:32:00,47.5,7.3,29.71,East,90,9.6,9.6,19,0.00,,,0.00,VWS V13.01,2013-04-03 17:32:00,
2013-04-03 12:37:00,47.8,7.6,29.71,NE,45,6.3,8.3,19,0.00,,,0.00,VWS V13.01,2013-04-03 17:37:00,
2013-04-03 12:43:00,48.7,8.3,29.71,North,0,3.6,6.3,19,0.00,,,0.00,VWS V13.01,2013-04-03 17:43:00,
2013-04-03 12:48:00,47.8,7.6,29.71,East,90,13.2,13.2,19,0.00,,,0.00,VWS V13.01,2013-04-03 17:48:00,
2013-04-03 12:53:00,48.4,8.0,29.71,East,90,9.6,9.6,19,0.00,,,0.00,VWS V13.01,2013-04-03 17:53:00,
2013-04-03 12:58:00,48.4,8.0,29.71,NE,45,4.0,5.8,19,0.00,,,0.00,VWS V13.01,2013-04-03 17:58:00,
2013-04-03 13:03:00,48.7,8.3,29.68,East,90,5.4,8.3,19,0.00,,,0.00,VWS V13.01,2013-04-03 18:03:00,
2013-04-03 13:08:00,49.5,8.9,29.68,NE,45,6.3,8.3,19,0.00,,,0.00,VWS V13.01,2013-04-03 18:08:00,
2013-04-03 13:13:00,49.5,8.9,29.68,East,90,8.7,10.5,19,0.00,,,0.00,VWS V13.01,2013-04-03 18:13:00,
2013-04-03 13:18:00,49.5,8.9,29.68,East,90,4.9,5.8,19,0.00,,,0.00,VWS V13.01,2013-04-03 18:18:00,
2013-04-03 13:24:00,49.8,9.2,29.68,East,90,10.1,12.3,19,0.00,,,0.00,VWS V13.01,2013-04-03 18:24:00,
2013-04-03 13:29:00,50.0,9.4,29.68,NE,45,5.8,7.2,19,0.00,,,0.00,VWS V13.01,2013-04-03 18:29:00,
2013-04-03 13:34:00,50.0,9.4,29.68,ESE,112,8.7,8.7,19,0.00,,,0.00,VWS V13.01,2013-04-03 18:34:00,
2013-04-03 13:40:00,50.2,9.5,29.68,NE,45,8.3,8.3,19,0.00,,,0.00,VWS V13.01,2013-04-03 18:40:00,
2013-04-03 13:45:00,50.7,10.0,29.68,East,90,6.7,8.7,19,0.00,,,0.00,VWS V13.01,2013-04-03 18:45:00,
2013-04-03 13:50:00,50.2,9.5,29.68,East,90,8.7,12.3,19,0.00,,,0.00,VWS V13.01,2013-04-03 18:50:00,
2013-04-03 13:55:00,49.8,9.2,29.68,East,90,7.2,10.5,19,0.00,,,0.00,VWS V13.01,2013-04-03 18:55:00,
2013-04-03 14:00:00,50.2,9.5,29.68,East,90,10.5,10.5,19,0.00,,,0.00,VWS V13.01,2013-04-03 19:00:00,
2013-04-03 14:05:00,49.8,9.2,29.68,NE,45,6.3,12.3,19,0.00,,,0.00,VWS V13.01,2013-04-03 19:05:00,
2013-04-03 14:10:00,50.2,9.5,29.68,NE,45,6.3,8.3,19,0.00,,,0.00,VWS V13.01,2013-04-03 19:10:00,
2013-04-03 14:15:00,50.2,9.5,29.68,East,90,8.1,8.7,19,0.00,,,0.00,VWS V13.01,2013-04-03 19:15:00,
2013-04-03 14:20:00,50.7,10.0,29.68,East,90,12.3,12.3,19,0.00,,,0.00,VWS V13.01,2013-04-03 19:20:00,
2013-04-03 14:25:00,50.4,9.7,29.68,NE,45,4.0,6.7,19,0.00,,,0.00,VWS V13.01,2013-04-03 19:25:00,
2013-04-03 14:31:00,51.1,10.3,29.68,NE,45,3.1,5.4,19,0.00,,,0.00,VWS V13.01,2013-04-03 19:31:00,
2013-04-03 14:36:00,51.1,10.3,29.68,NE,45,5.8,8.1,19,0.00,,,0.00,VWS V13.01,2013-04-03 19:36:00,
2013-04-03 14:41:00,51.3,10.4,29.68,East,90,10.1,10.1,19,0.00,,,0.00,VWS V13.01,2013-04-03 19:41:00,
2013-04-03 14:46:00,51.3,10.4,29.65,SE,135,5.4,6.3,19,0.00,,,0.00,VWS V13.01,2013-04-03 19:46:00,
2013-04-03 14:51:00,51.8,9.7,29.65,East,90,8.7,8.7,18,0.00,,,0.00,VWS V13.01,2013-04-03 19:51:00,
2013-04-03 14:57:00,52.0,9.8,29.65,ESE,112,8.1,8.1,18,0.00,,,0.00,VWS V13.01,2013-04-03 19:57:00,
2013-04-03 15:02:00,52.2,10.0,29.68,East,90,6.3,7.6,18,0.00,,,0.00,VWS V13.01,2013-04-03 20:02:00,
2013-04-03 15:07:00,51.4,10.6,29.68,East,90,4.9,6.3,19,0.00,,,0.00,VWS V13.01,2013-04-03 20:07:00,
2013-04-03 15:13:00,51.6,10.7,29.68,ENE,68,6.3,7.6,19,0.00,,,0.00,VWS V13.01,2013-04-03 20:13:00,
2013-04-03 15:18:00,51.6,10.7,29.65,NE,45,7.6,8.1,19,0.00,,,0.00,VWS V13.01,2013-04-03 20:18:00,
2013-04-03 15:23:00,51.3,10.4,29.65,East,90,8.3,12.8,19,0.00,,,0.00,VWS V13.01,2013-04-03 20:23:00,
2013-04-03 15:28:00,51.1,10.3,29.65,East,90,5.4,8.3,19,0.00,,,0.00,VWS V13.01,2013-04-03 20:28:00,
2013-04-03 15:33:00,51.1,10.3,29.65,SE,135,5.8,5.8,19,0.00,,,0.00,VWS V13.01,2013-04-03 20:33:00,
2013-04-03 15:38:00,52.3,10.1,29.65,East,90,15.0,15.0,18,0.00,,,0.00,VWS V13.01,2013-04-03 20:38:00,
2013-04-03 15:44:00,52.0,9.8,29.65,East,90,10.5,10.5,18,0.00,,,0.00,VWS V13.01,2013-04-03 20:44:00,
2013-04-03 15:49:00,51.8,9.7,29.65,East,90,5.8,5.8,18,0.00,,,0.00,VWS V13.01,2013-04-03 20:49:00,
2013-04-03 15:54:00,52.2,10.0,29.65,East,90,8.7,11.0,18,0.00,,,0.00,VWS V13.01,2013-04-03 20:54:00,
2013-04-03 16:00:00,52.5,10.2,29.65,NE,45,5.4,5.4,18,0.00,,,0.00,VWS V13.01,2013-04-03 21:00:00,
2013-04-03 16:05:00,52.3,10.1,29.65,ESE,112,7.6,12.8,18,0.00,,,0.00,VWS V13.01,2013-04-03 21:05:00,
2013-04-03 16:10:00,51.6,10.7,29.65,NE,45,6.7,7.6,19,0.00,,,0.00,VWS V13.01,2013-04-03 21:10:00,
2013-04-03 16:15:00,52.9,10.6,29.65,East,90,5.8,5.8,18,0.00,,,0.00,VWS V13.01,2013-04-03 21:15:00,
2013-04-03 16:20:00,52.7,10.4,29.65,NE,45,10.5,10.5,18,0.00,,,0.00,VWS V13.01,2013-04-03 21:20:00,
2013-04-03 16:25:00,53.2,10.9,29.65,ESE,112,4.0,5.8,18,0.00,,,0.00,VWS V13.01,2013-04-03 21:25:00,
2013-04-03 16:31:00,53.1,10.7,29.65,East,90,5.8,8.3,18,0.00,,,0.00,VWS V13.01,2013-04-03 21:31:00,
2013-04-03 16:36:00,53.4,11.0,29.65,East,90,8.7,8.7,18,0.00,,,0.00,VWS V13.01,2013-04-03 21:36:00,
2013-04-03 16:41:00,52.5,10.2,29.65,East,90,6.3,6.7,18,0.00,,,0.00,VWS V13.01,2013-04-03 21:41:00,
2013-04-03 16:46:00,52.7,10.4,29.65,NE,45,6.3,11.0,18,0.00,,,0.00,VWS V13.01,2013-04-03 21:46:00,
2013-04-03 16:51:00,52.5,10.2,29.65,East,90,5.4,5.8,18,0.00,,,0.00,VWS V13.01,2013-04-03 21:51:00,
2013-04-03 16:56:00,52.2,10.0,29.65,NE,45,5.4,8.1,18,0.00,,,0.00,VWS V13.01,2013-04-03 21:56:00,
2013-04-03 17:01:00,52.5,10.2,29.65,East,90,5.8,7.2,18,0.00,,,0.00,VWS V13.01,2013-04-03 22:01:00,
2013-04-03 17:07:00,52.0,9.8,29.65,East,90,10.5,10.5,18,0.00,,,0.00,VWS V13.01,2013-04-03 22:07:00,
2013-04-03 17:12:00,51.6,10.7,29.65,East,90,9.6,9.6,19,0.00,,,0.00,VWS V13.01,2013-04-03 22:12:00,
2013-04-03 17:17:00,51.6,10.7,29.65,East,90,8.7,8.7,19,0.00,,,0.00,VWS V13.01,2013-04-03 22:17:00,
2013-04-03 17:22:00,51.6,10.7,29.65,East,90,6.7,6.7,19,0.00,,,0.00,VWS V13.01,2013-04-03 22:22:00,
2013-04-03 17:27:00,51.4,10.6,29.65,NE,45,6.3,6.7,19,0.00,,,0.00,VWS V13.01,2013-04-03 22:27:00,
2013-04-03 17:33:00,51.3,10.4,29.65,East,90,8.1,10.1,19,0.00,,,0.00,VWS V13.01,2013-04-03 22:33:00,
2013-04-03 17:38:00,51.3,10.4,29.65,East,90,4.0,8.7,19,0.00,,,0.00,VWS V13.01,2013-04-03 22:38:00,
2013-04-03 17:43:00,50.9,10.1,29.65,East,90,7.6,8.1,19,0.00,,,0.00,VWS V13.01,2013-04-03 22:43:00,
2013-04-03 17:48:00,50.9,10.1,29.62,ENE,68,3.1,6.3,19,0.00,,,0.00,VWS V13.01,2013-04-03 22:48:00,
2013-04-03 17:53:00,50.9,10.1,29.62,NE,45,6.3,8.7,19,0.00,,,0.00,VWS V13.01,2013-04-03 22:53:00,
2013-04-03 17:58:00,50.7,10.0,29.62,East,90,8.7,8.7,19,0.00,,,0.00,VWS V13.01,2013-04-03 22:58:00,
2013-04-03 18:03:00,50.4,9.7,29.62,East,90,7.2,7.6,19,0.00,,,0.00,VWS V13.01,2013-04-03 23:03:00,
2013-04-03 18:08:00,50.4,9.7,29.62,East,90,7.6,7.6,19,0.00,,,0.00,VWS V13.01,2013-04-03 23:08:00,
2013-04-03 18:13:00,50.2,9.5,29.62,East,90,5.4,6.3,19,0.00,,,0.00,VWS V13.01,2013-04-03 23:13:00,
2013-04-03 18:18:00,50.0,9.4,29.62,East,90,5.4,5.8,19,0.00,,,0.00,VWS V13.01,2013-04-03 23:18:00,
2013-04-03 18:24:00,49.8,9.2,29.62,East,90,8.3,8.3,19,0.00,,,0.00,VWS V13.01,2013-04-03 23:24:00,
2013-04-03 18:29:00,49.8,9.2,29.62,NE,45,8.3,8.3,19,0.00,,,0.00,VWS V13.01,2013-04-03 23:29:00,
2013-04-03 18:34:00,49.6,5.3,29.62,East,90,4.0,7.6,16,0.00,,,0.00,VWS V13.01,2013-04-03 23:34:00,
2013-04-03 18:39:00,49.6,5.3,29.62,East,90,5.4,7.2,16,0.00,,,0.00,VWS V13.01,2013-04-03 23:39:00,
2013-04-03 18:44:00,49.5,5.2,29.62,East,90,4.9,5.4,16,0.00,,,0.00,VWS V13.01,2013-04-03 23:44:00,
2013-04-03 18:49:00,49.5,5.2,29.62,East,90,4.0,7.6,16,0.00,,,0.00,VWS V13.01,2013-04-03 23:49:00,
2013-04-03 18:54:00,49.3,5.0,29.62,East,90,5.4,8.3,16,0.00,,,0.00,VWS V13.01,2013-04-03 23:54:00,
2013-04-03 19:00:00,49.1,4.9,29.62,East,90,8.1,8.1,16,0.00,,,0.00,VWS V13.01,2013-04-04 00:00:00,
2013-04-03 19:05:00,48.9,4.7,29.62,East,90,4.0,7.6,16,0.00,,,0.00,VWS V13.01,2013-04-04 00:05:00,
2013-04-03 19:10:00,48.9,4.7,29.62,East,90,8.1,8.1,16,0.00,,,0.00,VWS V13.01,2013-04-04 00:10:00,
2013-04-03 19:15:00,48.7,4.6,29.62,East,90,6.3,6.3,16,0.00,,,0.00,VWS V13.01,2013-04-04 00:15:00,
2013-04-03 19:20:00,48.7,4.6,29.62,East,90,2.7,6.3,16,0.00,,,0.00,VWS V13.01,2013-04-04 00:20:00,
2013-04-03 19:25:00,48.4,4.3,29.62,East,90,8.3,8.3,16,0.00,,,0.00,VWS V13.01,2013-04-04 00:25:00,
2013-04-03 19:30:00,48.4,4.3,29.62,East,90,5.8,8.1,16,0.00,,,0.00,VWS V13.01,2013-04-04 00:30:00,
2013-04-03 19:35:00,48.2,4.1,29.62,East,90,4.0,6.3,16,0.00,,,0.00,VWS V13.01,2013-04-04 00:35:00,
2013-04-03 19:40:00,48.0,5.3,29.62,East,90,3.1,4.0,17,0.00,,,0.00,VWS V13.01,2013-04-04 00:40:00,
2013-04-03 19:45:00,48.0,5.3,29.62,ESE,112,4.9,6.3,17,0.00,,,0.00,VWS V13.01,2013-04-04 00:45:00,
2013-04-03 19:50:00,47.8,5.2,29.62,East,90,4.9,5.8,17,0.00,,,0.00,VWS V13.01,2013-04-04 00:50:00,
2013-04-03 19:55:00,47.7,5.0,29.62,East,90,4.0,4.0,17,0.00,,,0.00,VWS V13.01,2013-04-04 00:55:00,
2013-04-03 20:01:00,47.5,4.8,29.62,East,90,3.6,3.6,17,0.00,,,0.00,VWS V13.01,2013-04-04 01:01:00,
2013-04-03 20:06:00,47.7,5.0,29.62,East,90,3.6,5.8,17,0.00,,,0.00,VWS V13.01,2013-04-04 01:06:00,
2013-04-03 20:11:00,47.7,5.0,29.62,East,90,5.4,5.4,17,0.00,,,0.00,VWS V13.01,2013-04-04 01:11:00,
2013-04-03 20:16:00,47.5,4.8,29.62,East,90,4.0,5.8,17,0.00,,,0.00,VWS V13.01,2013-04-04 01:16:00,
2013-04-03 20:21:00,47.5,4.8,29.62,East,90,4.9,6.3,17,0.00,,,0.00,VWS V13.01,2013-04-04 01:21:00,
2013-04-03 20:27:00,47.3,4.7,29.62,East,90,2.7,4.0,17,0.00,,,0.00,VWS V13.01,2013-04-04 01:27:00,
2013-04-03 20:32:00,47.1,4.6,29.62,East,90,3.6,4.0,17,0.00,,,0.00,VWS V13.01,2013-04-04 01:32:00,
2013-04-03 20:37:00,47.1,4.6,29.62,East,90,2.7,4.0,17,0.00,,,0.00,VWS V13.01,2013-04-04 01:37:00,
2013-04-03 20:42:00,47.1,4.6,29.62,East,90,4.0,4.0,17,0.00,,,0.00,VWS V13.01,2013-04-04 01:42:00,
2013-04-03 20:47:00,47.1,4.6,29.62,East,90,4.9,6.3,17,0.00,,,0.00,VWS V13.01,2013-04-04 01:47:00,
2013-04-03 20:53:00,46.9,4.4,29.62,East,90,4.0,6.3,17,0.00,,,0.00,VWS V13.01,2013-04-04 01:53:00,
2013-04-03 20:58:00,46.9,4.4,29.62,East,90,2.7,4.9,17,0.00,,,0.00,VWS V13.01,2013-04-04 01:58:00,
2013-04-03 21:03:00,46.8,4.3,29.62,East,90,2.7,7.2,17,0.00,,,0.00,VWS V13.01,2013-04-04 02:03:00,
2013-04-03 21:08:00,46.8,4.3,29.62,East,90,4.9,4.9,17,0.00,,,0.00,VWS V13.01,2013-04-04 02:08:00,
2013-04-03 21:13:00,46.8,4.3,29.62,East,90,4.0,5.4,17,0.00,,,0.00,VWS V13.01,2013-04-04 02:13:00,
2013-04-03 21:18:00,46.6,4.1,29.62,East,90,3.6,5.8,17,0.00,,,0.00,VWS V13.01,2013-04-04 02:18:00,
2013-04-03 21:24:00,46.6,4.1,29.62,East,90,2.7,3.6,17,0.00,,,0.00,VWS V13.01,2013-04-04 02:24:00,
2013-04-03 21:29:00,46.6,4.1,29.62,East,90,3.6,4.9,17,0.00,,,0.00,VWS V13.01,2013-04-04 02:29:00,
2013-04-03 21:34:00,46.4,4.0,29.62,East,90,3.1,4.9,17,0.00,,,0.00,VWS V13.01,2013-04-04 02:34:00,
2013-04-03 21:39:00,46.6,4.1,29.62,ESE,112,5.4,8.1,17,0.00,,,0.00,VWS V13.01,2013-04-04 02:39:00,
2013-04-03 21:44:00,46.6,4.1,29.62,East,90,5.4,5.4,17,0.00,,,0.00,VWS V13.01,2013-04-04 02:44:00,
2013-04-03 21:50:00,46.6,4.1,29.62,East,90,4.5,6.3,17,0.00,,,0.00,VWS V13.01,2013-04-04 02:50:00,
2013-04-03 21:55:00,46.4,4.0,29.62,East,90,4.9,6.7,17,0.00,,,0.00,VWS V13.01,2013-04-04 02:55:00,
2013-04-03 22:00:00,46.4,4.0,29.62,East,90,2.7,3.6,17,0.00,,,0.00,VWS V13.01,2013-04-04 03:00:00,
2013-04-03 22:05:00,46.2,3.8,29.62,East,90,4.0,4.9,17,0.00,,,0.00,VWS V13.01,2013-04-04 03:05:00,
2013-04-03 22:10:00,46.0,3.7,29.62,East,90,4.0,4.9,17,0.00,,,0.00,VWS V13.01,2013-04-04 03:10:00,
2013-04-03 22:15:00,46.0,3.7,29.62,East,90,7.6,7.6,17,0.00,,,0.00,VWS V13.01,2013-04-04 03:15:00,
2013-04-03 22:21:00,46.2,3.8,29.62,East,90,5.8,8.1,17,0.00,,,0.00,VWS V13.01,2013-04-04 03:21:00,
2013-04-03 22:26:00,45.9,3.5,29.62,ENE,68,4.0,5.4,17,0.00,,,0.00,VWS V13.01,2013-04-04 03:26:00,
2013-04-03 22:31:00,45.9,3.5,29.62,East,90,5.4,5.4,17,0.00,,,0.00,VWS V13.01,2013-04-04 03:31:00,
2013-04-03 22:36:00,45.7,3.4,29.62,East,90,4.0,4.5,17,0.00,,,0.00,VWS V13.01,2013-04-04 03:36:00,
2013-04-03 22:42:00,45.5,3.2,29.62,East,90,3.6,5.8,17,0.00,,,0.00,VWS V13.01,2013-04-04 03:42:00,
2013-04-03 22:47:00,45.3,3.1,29.62,East,90,3.6,4.9,17,0.00,,,0.00,VWS V13.01,2013-04-04 03:47:00,
2013-04-03 22:52:00,45.1,2.9,29.62,East,90,0.0,0.0,17,0.00,,,0.00,VWS V13.01,2013-04-04 03:52:00,
2013-04-03 22:57:00,44.8,2.6,29.62,East,90,0.0,0.0,17,0.00,,,0.00,VWS V13.01,2013-04-04 03:57:00,
2013-04-03 23:00:00,44.6,2.5,29.62,East,90,0.0,0.0,17,0.00,,,0.00,VWS V13.01,2013-04-04 04:00:00,
2013-04-03 23:01:00,44.4,3.6,29.62,East,90,0.0,0.0,18,0.00,,,0.00,VWS V13.01,2013-04-04 04:01:00,
2013-04-03 23:03:00,44.2,3.4,29.62,East,90,0.0,0.0,18,0.00,,,0.00,VWS V13.01,2013-04-04 04:03:00,
2013-04-03 23:08:00,44.2,3.4,29.62,East,90,0.0,0.0,18,0.00,,,0.00,VWS V13.01,2013-04-04 04:08:00,
2013-04-03 23:13:00,44.2,3.4,29.62,East,90,0.0,0.0,18,0.00,,,0.00,VWS V13.01,2013-04-04 04:13:00,
2013-04-03 23:18:00,44.1,3.3,29.62,East,90,0.0,0.0,18,0.00,,,0.00,VWS V13.01,2013-04-04 04:18:00,
2013-04-03 23:23:00,44.1,3.3,29.62,East,90,0.0,0.0,18,0.00,,,0.00,VWS V13.01,2013-04-04 04:23:00,
2013-04-03 23:29:00,43.7,3.0,29.62,East,90,0.0,0.0,18,0.00,,,0.00,VWS V13.01,2013-04-04 04:29:00,
2013-04-03 23:34:00,43.5,2.8,29.62,East,90,0.0,0.0,18,0.00,,,0.00,VWS V13.01,2013-04-04 04:34:00,
2013-04-03 23:39:00,43.5,2.8,29.62,East,90,0.0,0.0,18,0.00,,,0.00,VWS V13.01,2013-04-04 04:39:00,
2013-04-03 23:44:00,43.5,2.8,29.62,East,90,0.0,0.0,18,0.00,,,0.00,VWS V13.01,2013-04-04 04:44:00,
2013-04-03 23:49:00,43.3,2.7,29.59,East,90,0.0,0.0,18,0.00,,,0.00,VWS V13.01,2013-04-04 04:49:00,
2013-04-03 23:55:00,43.0,2.4,29.59,East,90,0.0,0.0,18,0.00,,,0.00,VWS V13.01,2013-04-04 04:55:00,